TimeEST,TemperatureF,Dew PointF,Humidity,Sea Level PressureIn,VisibilityMPH,Wind Direction,Wind SpeedMPH,Gust SpeedMPH,PrecipitationIn,Events,Conditions,WindDirDegrees,DateUTC
12:15 AM,35.6,18.5,50,30.22,10.0,South,3.5,-,N/A,,Clear,180,2013-02-19 05:15:00
12:35 AM,36.0,19.4,51,30.20,10.0,South,3.5,-,N/A,,Clear,180,2013-02-19 05:35:00
12:55 AM,36.5,19.6,50,30.19,10.0,Calm,Calm,-,N/A,,Clear,0,2013-02-19 05:55:00
1:15 AM,36.3,19.9,52,30.18,10.0,South,3.5,-,N/A,,Clear,170,2013-02-19 06:15:00
1:35 AM,36.5,19.6,50,30.17,10.0,South,3.5,-,N/A,,Clear,180,2013-02-19 06:35:00
1:55 AM,36.7,19.8,50,30.18,10.0,South,3.5,-,N/A,,Clear,180,2013-02-19 06:55:00
2:15 AM,35.8,19.9,53,30.18,10.0,South,4.6,-,N/A,,Clear,180,2013-02-19 07:15:00
2:35 AM,36.3,20.7,53,30.17,10.0,South,3.5,-,N/A,,Clear,190,2013-02-19 07:35:00
2:55 AM,36.5,21.2,54,30.16,10.0,South,6.9,-,N/A,,Clear,190,2013-02-19 07:55:00
3:15 AM,38.3,21.9,52,30.15,10.0,South,5.8,-,N/A,,Clear,190,2013-02-19 08:15:00
3:35 AM,38.3,21.7,51,30.13,10.0,South,5.8,-,N/A,,Clear,180,2013-02-19 08:35:00
3:55 AM,38.5,22.1,52,30.12,10.0,South,5.8,16.1,N/A,,Clear,190,2013-02-19 08:55:00
4:15 AM,38.3,22.5,53,30.11,10.0,South,6.9,-,N/A,,Clear,180,2013-02-19 09:15:00
4:35 AM,38.3,23.0,54,30.10,10.0,South,5.8,-,N/A,,Clear,180,2013-02-19 09:35:00
4:55 AM,38.3,23.2,55,30.09,10.0,South,4.6,-,N/A,,Clear,180,2013-02-19 09:55:00
5:15 AM,37.9,23.7,57,30.09,10.0,South,6.9,-,N/A,,Clear,190,2013-02-19 10:15:00
5:35 AM,38.3,23.9,56,30.10,10.0,South,8.1,-,N/A,,Clear,180,2013-02-19 10:35:00
5:55 AM,38.3,24.1,57,30.08,10.0,South,8.1,-,N/A,,Clear,180,2013-02-19 10:55:00
6:15 AM,38.3,24.4,57,30.09,10.0,SSW,8.1,-,N/A,,Clear,200,2013-02-19 11:15:00
6:35 AM,38.3,24.4,57,30.08,10.0,South,5.8,-,N/A,,Clear,190,2013-02-19 11:35:00
6:55 AM,38.3,24.6,58,30.08,10.0,South,6.9,-,N/A,,Clear,190,2013-02-19 11:55:00
7:15 AM,38.3,24.8,58,30.06,10.0,South,6.9,-,N/A,,Scattered Clouds,170,2013-02-19 12:15:00
7:35 AM,38.5,24.6,58,30.06,10.0,South,6.9,-,N/A,,Scattered Clouds,180,2013-02-19 12:35:00
7:55 AM,39.2,24.8,56,30.06,10.0,South,9.2,-,N/A,,Clear,190,2013-02-19 12:55:00
8:15 AM,40.1,24.8,54,30.06,10.0,South,10.4,-,N/A,,Scattered Clouds,190,2013-02-19 13:15:00
8:35 AM,40.6,25.2,54,30.05,10.0,South,12.7,16.1,N/A,,Overcast,190,2013-02-19 13:35:00
8:55 AM,42.3,25.7,52,30.05,10.0,SW,11.5,20.7,N/A,,Overcast,220,2013-02-19 13:55:00
9:15 AM,41.5,31.6,68,30.05,7.0,SW,9.2,20.7,N/A,Rain,Rain,220,2013-02-19 14:15:00
9:35 AM,41.2,33.1,73,30.02,10.0,SSW,8.1,16.1,0.01,Rain,Light Rain,210,2013-02-19 14:35:00
9:55 AM,42.1,32.2,68,30.03,10.0,SSW,9.2,17.3,0.01,,Light Drizzle,210,2013-02-19 14:55:00
10:15 AM,41.9,33.3,71,30.01,10.0,SSW,8.1,16.1,N/A,Rain,Rain,200,2013-02-19 15:15:00
10:35 AM,41.2,34.5,77,30.01,10.0,SSW,8.1,19.6,0.01,Rain,Light Rain,200,2013-02-19 15:35:00
10:55 AM,40.6,35.2,81,30.00,10.0,SSW,6.9,-,0.01,Rain,Light Rain,200,2013-02-19 15:55:00
11:15 AM,40.6,36.7,86,29.99,10.0,South,6.9,-,0.01,Rain,Light Rain,190,2013-02-19 16:15:00
11:35 AM,41.0,37.0,86,29.98,10.0,SSW,6.9,-,0.01,Rain,Light Rain,200,2013-02-19 16:35:00
11:55 AM,41.2,38.5,90,29.97,10.0,South,10.4,16.1,0.02,Rain,Rain,180,2013-02-19 16:55:00
12:15 PM,41.9,39.4,91,29.95,10.0,South,8.1,-,N/A,,Light Drizzle,190,2013-02-19 17:15:00
12:35 PM,42.1,40.1,93,29.92,10.0,South,8.1,-,N/A,,Overcast,190,2013-02-19 17:35:00
12:55 PM,42.4,40.1,91,29.91,10.0,SSW,6.9,16.1,N/A,Rain,Light Rain,200,2013-02-19 17:55:00
1:15 PM,42.8,40.1,90,29.89,10.0,SSW,6.9,-,N/A,,Drizzle,200,2013-02-19 18:15:00
1:35 PM,42.8,40.8,93,29.87,5.0,SSW,6.9,-,N/A,,Drizzle,200,2013-02-19 18:35:00
1:55 PM,42.8,41.2,94,29.86,4.0,SSW,4.6,-,0.01,,Drizzle,200,2013-02-19 18:55:00
2:15 PM,43.2,41.9,95,29.84,7.0,South,5.8,-,N/A,Rain,Light Rain,190,2013-02-19 19:15:00
2:35 PM,43.5,42.3,95,29.83,7.0,South,6.9,-,N/A,,Light Drizzle,180,2013-02-19 19:35:00
2:55 PM,43.7,42.1,94,29.82,10.0,SSW,5.8,-,N/A,,Overcast,200,2013-02-19 19:55:00
3:15 PM,44.6,42.3,91,29.82,10.0,SSW,6.9,-,N/A,,Overcast,200,2013-02-19 20:15:00
3:35 PM,44.8,42.1,90,29.80,10.0,SSW,9.2,20.7,N/A,,Overcast,210,2013-02-19 20:35:00
4:15 PM,45.5,42.1,88,29.80,10.0,SSW,8.1,18.4,N/A,,Overcast,210,2013-02-19 21:15:00
4:35 PM,46.0,42.4,87,29.79,10.0,SW,9.2,18.4,N/A,,Overcast,230,2013-02-19 21:35:00
4:55 PM,46.4,42.3,85,29.80,10.0,SW,8.1,16.1,N/A,,Overcast,220,2013-02-19 21:55:00
5:15 PM,46.4,42.1,85,29.80,10.0,SW,11.5,17.3,N/A,,Overcast,220,2013-02-19 22:15:00
5:35 PM,45.7,41.9,87,29.81,10.0,SW,11.5,20.7,N/A,,Overcast,230,2013-02-19 22:35:00
5:55 PM,45.5,41.4,85,29.81,10.0,SW,5.8,-,N/A,,Mostly Cloudy,220,2013-02-19 22:55:00
6:15 PM,45.5,41.4,85,29.82,10.0,SW,5.8,-,N/A,,Overcast,230,2013-02-19 23:15:00
7:35 PM,44.6,41.0,87,29.85,10.0,WSW,3.5,-,N/A,,Scattered Clouds,240,2013-02-20 00:35:00
7:55 PM,43.9,40.3,87,29.85,10.0,WSW,4.6,-,N/A,,Clear,240,2013-02-20 00:55:00
8:15 PM,43.3,38.7,84,29.86,10.0,WSW,8.1,-,N/A,,Clear,250,2013-02-20 01:15:00
8:35 PM,43.7,35.6,73,29.87,10.0,West,10.4,-,N/A,,Clear,270,2013-02-20 01:35:00
8:55 PM,43.3,32.2,65,29.87,10.0,West,6.9,-,N/A,,Clear,280,2013-02-20 01:55:00
9:15 PM,42.8,30.6,62,29.88,10.0,West,5.8,-,N/A,,Clear,280,2013-02-20 02:15:00
9:35 PM,41.9,29.8,62,29.89,10.0,Calm,Calm,-,N/A,,Clear,0,2013-02-20 02:35:00
9:55 PM,41.9,29.1,61,29.89,10.0,Calm,Calm,-,N/A,,Clear,0,2013-02-20 02:55:00
10:15 PM,41.0,28.2,60,29.89,10.0,Calm,Calm,-,N/A,,Clear,0,2013-02-20 03:15:00
10:35 PM,38.7,28.4,67,29.89,10.0,West,4.6,-,N/A,,Clear,270,2013-02-20 03:35:00
10:55 PM,35.1,29.5,80,29.89,10.0,West,4.6,-,N/A,,Clear,260,2013-02-20 03:55:00
11:15 PM,34.9,27.1,73,29.89,10.0,West,4.6,-,N/A,,Clear,280,2013-02-20 04:15:00
11:35 PM,33.8,27.0,76,29.90,10.0,Calm,Calm,-,N/A,,Clear,0,2013-02-20 04:35:00
11:55 PM,35.2,27.1,72,29.90,10.0,Calm,Calm,-,N/A,,Clear,0,2013-02-20 04:55:00